Terminal Aerodrome Forecast
Issued by NWS Cleveland, OH

Home | Current Version | Previous Version | Graphics & Text | Print | Product List | Glossary Off
Versions: 1 2 3 4 5 6 7 8 9 10 11 12 13 14 15 16 17 18 19 20 21 22

000
FTUS41 KCLE 280539
TAFERI
TAF
KERI 280539Z 2806/2906 06009KT P6SM OVC180
     FM281400 07012G20KT P6SM VCSH OVC080
     FM281600 07015G25KT P6SM -SHRA BKN028
     FM290100 05010KT P6SM OVC015=

USA.gov is the U.S. government's official web portal to all federal, state and local government web resources and services.